Time;durP1;ratioP1;P1;durP2;ratioP2;P2;SDS_P1;SDS_P2;PMS_P1;PMS_P2;Temp;Humidity;BMP_temperature;BMP_pressure;BME280_temperature;BME280_humidity;BME280_pressure;Samples;Min_cycle;Max_cycle;Signal;HPM_P1;HPM_P2
2023/03/19 00:02:11;;;;;;;25.75;18.98;;;10.00;99.90;;;;;;5061026;28;20053;-67
2023/03/19 00:04:37;;;;;;;26.60;19.00;;;9.90;99.90;;;;;;5043003;28;20041;-67
2023/03/19 00:07:03;;;;;;;26.35;19.15;;;9.90;99.90;;;;;;5057414;28;20057;-67
2023/03/19 00:09:28;;;;;;;26.88;18.73;;;9.90;99.90;;;;;;5037604;28;20128;-67
2023/03/19 00:11:54;;;;;;;27.60;19.13;;;9.90;99.90;;;;;;5055270;28;20098;-67
2023/03/19 00:14:20;;;;;;;25.15;17.27;;;9.90;99.90;;;;;;5037621;28;20045;-67
2023/03/19 00:16:46;;;;;;;26.60;19.02;;;9.90;99.90;;;;;;5036824;28;20044;-67
2023/03/19 00:19:12;;;;;;;25.30;18.65;;;9.90;99.90;;;;;;5021707;28;20147;-67
2023/03/19 00:21:37;;;;;;;26.30;19.00;;;9.90;99.90;;;;;;5054822;28;20075;-67
2023/03/19 00:24:04;;;;;;;24.88;18.98;;;9.90;99.90;;;;;;5054811;28;20041;-67
2023/03/19 00:26:31;;;;;;;25.42;18.25;;;9.80;99.90;;;;;;5054655;28;20044;-67
2023/03/19 00:28:57;;;;;;;24.83;18.75;;;10.00;99.90;;;;;;5054792;28;20148;-67
2023/03/19 00:31:24;;;;;;;26.70;18.92;;;9.70;99.90;;;;;;5020547;28;20053;-67
2023/03/19 00:33:50;;;;;;;25.42;19.00;;;9.70;99.90;;;;;;5020802;28;20048;-68
2023/03/19 00:36:17;;;;;;;27.13;18.75;;;9.70;99.90;;;;;;5037101;28;20508;-67
2023/03/19 00:38:43;;;;;;;25.00;19.30;;;9.70;99.90;;;;;;5055310;28;20381;-67
2023/03/19 00:41:09;;;;;;;26.10;18.27;;;9.70;99.90;;;;;;5037715;28;20048;-67
2023/03/19 00:43:35;;;;;;;25.35;18.35;;;9.70;99.90;;;;;;5036925;28;20135;-67
2023/03/19 00:46:01;;;;;;;23.55;17.33;;;9.80;99.90;;;;;;5055354;28;20073;-67
2023/03/19 00:48:27;;;;;;;25.85;18.08;;;9.60;99.90;;;;;;5059625;28;20103;-67
2023/03/19 00:50:52;;;;;;;23.95;17.60;;;9.70;99.90;;;;;;5059009;28;20064;-67
2023/03/19 00:53:18;;;;;;;25.92;18.10;;;9.60;99.90;;;;;;5055355;28;20132;-67
2023/03/19 00:55:44;;;;;;;25.52;18.27;;;9.60;99.90;;;;;;5054199;28;20059;-66
2023/03/19 00:58:09;;;;;;;23.73;17.10;;;9.70;99.90;;;;;;5053882;28;20097;-67
2023/03/19 01:00:37;;;;;;;26.95;18.50;;;9.70;99.90;;;;;;5054331;28;20115;-67
2023/03/19 01:03:04;;;;;;;24.95;18.15;;;9.70;99.90;;;;;;5054019;28;20477;-66
2023/03/19 01:05:30;;;;;;;23.70;17.50;;;9.70;99.90;;;;;;5053857;28;20497;-67
2023/03/19 01:07:56;;;;;;;24.30;17.73;;;9.70;99.90;;;;;;5036393;28;20091;-67
2023/03/19 01:10:23;;;;;;;27.25;17.88;;;9.70;99.90;;;;;;5036202;28;20041;-67
2023/03/19 01:12:49;;;;;;;25.33;17.77;;;9.90;99.90;;;;;;5053907;28;20044;-68
2023/03/19 01:15:16;;;;;;;24.95;17.40;;;9.70;99.90;;;;;;5036204;28;20053;-67
2023/03/19 01:17:42;;;;;;;28.20;18.23;;;9.80;99.90;;;;;;5054586;28;20127;-67
2023/03/19 01:20:12;;;;;;;27.60;19.10;;;9.80;99.90;;;;;;5053775;28;20178;-67
2023/03/19 01:22:41;;;;;;;25.30;18.30;;;9.80;99.90;;;;;;5053686;28;20093;-67
2023/03/19 01:25:08;;;;;;;25.13;18.60;;;9.80;99.90;;;;;;5054479;28;20041;-67
2023/03/19 01:27:34;;;;;;;26.98;19.17;;;9.80;99.90;;;;;;5053737;28;20485;-67
2023/03/19 01:30:00;;;;;;;28.40;18.42;;;9.70;99.90;;;;;;5053636;28;20131;-67
2023/03/19 01:32:26;;;;;;;26.02;18.58;;;9.70;99.90;;;;;;5053669;28;20084;-66
2023/03/19 01:34:52;;;;;;;28.42;19.20;;;9.70;99.90;;;;;;5053546;28;20132;-67
2023/03/19 01:37:19;;;;;;;26.60;18.85;;;9.80;99.90;;;;;;5053531;28;20160;-67
2023/03/19 01:39:45;;;;;;;29.52;19.02;;;9.80;99.90;;;;;;5053561;28;20370;-67
2023/03/19 01:42:11;;;;;;;26.63;18.23;;;9.70;99.90;;;;;;5053450;28;20041;-67
2023/03/19 01:44:38;;;;;;;30.27;19.70;;;9.80;99.90;;;;;;5053305;28;20103;-67
2023/03/19 01:47:23;;;;;;;26.88;18.27;;;9.70;99.90;;;;;;5053365;28;20052;-67
2023/03/19 01:49:54;;;;;;;24.00;18.20;;;9.80;99.90;;;;;;5053458;28;20128;-66
2023/03/19 01:52:21;;;;;;;28.83;18.67;;;9.90;99.90;;;;;;5054253;28;20040;-67
2023/03/19 01:54:48;;;;;;;27.52;18.85;;;9.70;99.90;;;;;;5054066;28;20399;-67
2023/03/19 01:57:15;;;;;;;24.05;16.95;;;9.80;99.90;;;;;;5057519;28;20056;-67
2023/03/19 01:59:52;;;;;;;24.60;17.75;;;9.80;99.90;;;;;;5057019;28;20515;-66
2023/03/19 02:02:32;;;;;;;28.40;19.00;;;9.80;99.90;;;;;;5039658;28;20084;-67
2023/03/19 02:05:05;;;;;;;24.45;18.25;;;9.80;99.90;;;;;;5057903;28;20442;-67
2023/03/19 02:07:33;;;;;;;27.15;19.20;;;9.70;99.90;;;;;;5039556;28;20056;-67
2023/03/19 02:10:00;;;;;;;26.45;19.00;;;9.80;99.90;;;;;;5057791;28;20088;-67
2023/03/19 02:12:26;;;;;;;25.45;18.38;;;9.70;99.90;;;;;;5040109;28;20381;-67
2023/03/19 02:14:52;;;;;;;27.65;17.75;;;9.70;99.90;;;;;;5057158;28;20059;-67
2023/03/19 02:17:20;;;;;;;27.02;19.33;;;9.90;99.90;;;;;;5057125;28;20485;-67
2023/03/19 02:20:33;;;;;;;28.13;19.17;;;9.80;99.90;;;;;;5057569;28;20056;-67
2023/03/19 02:23:10;;;;;;;24.67;18.83;;;9.80;99.90;;;;;;4980014;28;20413;-67
2023/03/19 02:25:56;;;;;;;25.55;18.55;;;9.80;99.90;;;;;;5057476;28;20044;-68
2023/03/19 02:28:23;;;;;;;24.95;17.23;;;9.70;99.90;;;;;;5042664;28;20115;-67
2023/03/19 02:30:48;;;;;;;24.45;16.77;;;9.80;99.90;;;;;;5056910;28;20041;-67
2023/03/19 02:33:19;;;;;;;24.67;17.13;;;9.80;99.90;;;;;;5056825;28;20135;-66
2023/03/19 02:35:48;;;;;;;20.88;16.02;;;9.80;99.90;;;;;;5057379;28;20045;-67
2023/03/19 02:38:14;;;;;;;22.63;15.25;;;9.80;99.90;;;;;;5056696;28;20095;-67
2023/03/19 02:41:03;;;;;;;22.02;15.20;;;9.80;99.90;;;;;;5057491;28;20124;-67
2023/03/19 02:43:33;;;;;;;21.80;15.80;;;9.80;99.90;;;;;;5039048;28;20048;-67
2023/03/19 02:46:04;;;;;;;20.08;14.45;;;9.80;99.90;;;;;;5056503;28;20477;-67
2023/03/19 02:48:30;;;;;;;22.13;14.25;;;9.80;99.90;;;;;;5057255;28;20045;-67
2023/03/19 02:50:56;;;;;;;27.08;17.30;;;9.80;99.90;;;;;;5056489;28;20085;-67
2023/03/19 02:53:21;;;;;;;23.95;15.68;;;9.80;99.90;;;;;;5056471;28;20088;-67
2023/03/19 02:55:47;;;;;;;24.85;16.55;;;9.90;99.90;;;;;;5056790;28;20095;-67
2023/03/19 02:58:13;;;;;;;23.27;16.77;;;9.80;99.90;;;;;;5022677;28;20433;-67
2023/03/19 03:00:40;;;;;;;25.88;16.73;;;9.80;99.90;;;;;;5056385;28;20099;-67
2023/03/19 03:03:06;;;;;;;25.95;17.98;;;9.90;99.90;;;;;;5056278;28;20094;-67
2023/03/19 03:05:33;;;;;;;26.23;18.15;;;9.90;99.90;;;;;;5056138;28;20126;-67
2023/03/19 03:07:58;;;;;;;25.27;17.13;;;9.90;99.90;;;;;;5054999;28;20090;-67
2023/03/19 03:10:25;;;;;;;22.25;16.65;;;9.90;99.90;;;;;;5056158;28;20393;-67
2023/03/19 03:12:50;;;;;;;26.92;18.48;;;9.90;99.90;;;;;;5056056;28;20053;-67
2023/03/19 03:15:16;;;;;;;26.23;18.85;;;9.80;99.90;;;;;;5056076;28;20116;-67
2023/03/19 03:17:44;;;;;;;28.27;19.83;;;9.80;99.90;;;;;;5056000;28;20493;-67
2023/03/19 03:20:12;;;;;;;29.20;19.55;;;9.80;99.90;;;;;;5055933;28;20045;-67
2023/03/19 03:22:38;;;;;;;28.48;18.83;;;9.70;99.90;;;;;;5055881;28;20048;-66
2023/03/19 03:25:05;;;;;;;26.13;18.85;;;9.70;99.90;;;;;;5056563;28;20041;-67
2023/03/19 03:27:31;;;;;;;29.25;19.83;;;9.80;99.90;;;;;;5055735;28;20047;-70
2023/03/19 03:29:57;;;;;;;28.30;19.33;;;9.90;99.90;;;;;;5055778;28;20096;-67
2023/03/19 03:32:24;;;;;;;29.52;20.38;;;9.70;99.90;;;;;;5055997;28;20077;-67
2023/03/19 03:34:49;;;;;;;28.75;19.48;;;9.70;99.90;;;;;;5055646;28;20545;-67
2023/03/19 03:37:16;;;;;;;28.33;19.40;;;9.80;99.90;;;;;;5055707;28;20150;-67
2023/03/19 03:39:42;;;;;;;29.40;19.83;;;9.80;99.90;;;;;;5055636;28;20370;-67
2023/03/19 03:42:08;;;;;;;30.15;20.58;;;9.70;99.90;;;;;;5055645;28;20083;-67
2023/03/19 03:44:35;;;;;;;29.25;19.98;;;9.70;99.90;;;;;;5037713;28;20385;-67
2023/03/19 03:47:00;;;;;;;30.65;20.15;;;9.80;99.90;;;;;;5055487;28;20439;-67
2023/03/19 03:49:26;;;;;;;32.03;21.25;;;9.70;99.90;;;;;;5055404;28;20098;-67
2023/03/19 03:51:52;;;;;;;31.42;20.45;;;9.70;99.90;;;;;;5037565;28;20090;-67
2023/03/19 03:54:17;;;;;;;29.92;20.48;;;9.80;99.90;;;;;;5055595;28;20080;-67
2023/03/19 03:56:43;;;;;;;30.42;20.55;;;9.50;99.90;;;;;;5055244;28;20053;-67
2023/03/19 03:59:09;;;;;;;30.55;20.15;;;9.70;99.90;;;;;;5054779;28;20060;-67
2023/03/19 04:01:35;;;;;;;31.83;20.60;;;9.60;99.90;;;;;;5055185;28;20084;-67
2023/03/19 04:04:01;;;;;;;32.00;20.15;;;9.60;99.90;;;;;;5055075;28;20060;-67
2023/03/19 04:06:27;;;;;;;26.65;18.52;;;9.70;99.90;;;;;;5020746;28;20048;-67
2023/03/19 04:08:53;;;;;;;28.15;19.05;;;9.60;99.90;;;;;;5055058;28;20056;-67
2023/03/19 04:11:19;;;;;;;29.95;19.20;;;9.70;99.90;;;;;;5054974;28;20131;-67
2023/03/19 04:13:45;;;;;;;27.05;19.10;;;9.70;99.90;;;;;;5054972;28;20499;-67
2023/03/19 04:16:11;;;;;;;25.60;17.88;;;9.70;99.90;;;;;;5054919;28;20041;-67
2023/03/19 04:18:37;;;;;;;27.58;18.83;;;9.60;99.90;;;;;;5037295;28;20041;-67
2023/03/19 04:21:04;;;;;;;27.98;17.85;;;9.60;99.90;;;;;;5054778;28;20080;-67
2023/03/19 04:23:31;;;;;;;26.95;18.08;;;9.60;99.90;;;;;;5054771;28;20393;-67
2023/03/19 04:26:02;;;;;;;22.50;16.17;;;9.50;99.90;;;;;;5054688;28;20044;-67
2023/03/19 04:28:28;;;;;;;24.30;16.85;;;9.70;99.90;;;;;;5055195;28;20052;-67
2023/03/19 04:31:03;;;;;;;23.02;16.85;;;9.60;99.90;;;;;;5054544;28;20049;-67
2023/03/19 04:33:29;;;;;;;25.40;15.68;;;9.60;99.90;;;;;;5055065;28;20085;-66
2023/03/19 04:35:55;;;;;;;23.17;15.73;;;9.60;99.90;;;;;;5054802;28;20096;-67
2023/03/19 04:38:21;;;;;;;18.35;14.02;;;9.60;99.90;;;;;;5054683;28;20045;-67
2023/03/19 04:40:48;;;;;;;21.08;14.30;;;9.70;99.90;;;;;;5054399;28;20507;-67
2023/03/19 04:43:14;;;;;;;18.38;13.52;;;9.70;99.90;;;;;;5054367;28;20145;-67
2023/03/19 04:45:40;;;;;;;17.70;13.40;;;9.60;99.90;;;;;;5053986;28;20397;-68
2023/03/19 04:48:06;;;;;;;18.90;13.43;;;9.70;99.90;;;;;;5054834;28;20436;-68
2023/03/19 04:50:32;;;;;;;16.02;11.93;;;9.70;99.90;;;;;;5054179;28;20098;-67
2023/03/19 04:52:57;;;;;;;16.13;11.02;;;9.70;99.90;;;;;;5054235;28;20053;-67
2023/03/19 04:55:23;;;;;;;15.02;10.48;;;9.70;99.90;;;;;;5019884;28;20045;-67
2023/03/19 04:57:49;;;;;;;12.75;9.32;;;9.70;99.90;;;;;;5054024;28;20044;-67
2023/03/19 05:00:16;;;;;;;14.80;9.43;;;9.70;99.90;;;;;;5036196;28;20527;-68
2023/03/19 05:02:42;;;;;;;12.07;8.13;;;9.70;99.90;;;;;;5037033;28;20053;-68
2023/03/19 05:05:11;;;;;;;12.82;9.23;;;9.70;99.90;;;;;;5053943;28;20037;-67
2023/03/19 05:07:37;;;;;;;10.20;7.97;;;9.70;99.90;;;;;;5036234;28;20508;-67
2023/03/19 05:10:03;;;;;;;12.02;8.77;;;9.70;99.90;;;;;;5036730;28;20044;-67
2023/03/19 05:12:29;;;;;;;11.25;8.70;;;9.70;99.90;;;;;;5036166;28;20045;-67
2023/03/19 05:14:55;;;;;;;10.45;7.20;;;9.70;99.90;;;;;;5053800;28;20041;-67
2023/03/19 05:17:20;;;;;;;8.90;7.20;;;9.80;99.90;;;;;;5036537;28;20128;-68
2023/03/19 05:19:47;;;;;;;9.98;7.53;;;9.80;99.90;;;;;;5053775;28;20455;-68
2023/03/19 05:22:13;;;;;;;9.60;6.38;;;9.70;99.90;;;;;;5036149;28;20128;-67
2023/03/19 05:24:38;;;;;;;10.55;7.40;;;9.70;99.90;;;;;;5036318;28;20438;-67
2023/03/19 05:27:04;;;;;;;11.02;7.15;;;9.70;99.90;;;;;;5053658;28;20409;-67
2023/03/19 05:29:30;;;;;;;10.50;7.45;;;9.80;99.90;;;;;;5035803;28;20416;-68
2023/03/19 05:31:56;;;;;;;8.57;7.00;;;9.60;99.90;;;;;;5035837;28;20059;-68
2023/03/19 05:34:22;;;;;;;10.18;7.15;;;9.70;99.90;;;;;;5053627;28;20150;-67
2023/03/19 05:36:48;;;;;;;10.40;7.60;;;9.70;99.90;;;;;;5053610;28;20052;-67
2023/03/19 05:39:14;;;;;;;11.05;7.57;;;9.70;99.90;;;;;;5054075;28;20110;-68
2023/03/19 05:41:40;;;;;;;12.23;8.02;;;9.70;99.90;;;;;;5053833;28;20053;-67
2023/03/19 05:44:06;;;;;;;10.55;7.45;;;9.70;99.90;;;;;;5053548;28;20080;-67
2023/03/19 05:46:31;;;;;;;8.38;6.28;;;9.60;99.90;;;;;;5036899;28;20045;-67
2023/03/19 05:48:57;;;;;;;13.52;7.70;;;9.70;99.90;;;;;;5058047;28;20045;-68
2023/03/19 05:51:23;;;;;;;10.13;7.20;;;9.60;99.90;;;;;;5060748;28;20045;-67
2023/03/19 05:53:48;;;;;;;11.73;7.47;;;9.60;99.90;;;;;;5042018;28;20503;-67
2023/03/19 05:56:14;;;;;;;12.23;7.80;;;9.50;99.90;;;;;;5061440;28;20041;-67
2023/03/19 05:58:40;;;;;;;10.75;7.78;;;9.50;99.90;;;;;;5041309;28;20083;-67
2023/03/19 06:01:06;;;;;;;10.65;6.75;;;9.50;99.90;;;;;;5057267;28;20053;-67
2023/03/19 06:03:31;;;;;;;10.00;7.13;;;9.50;99.90;;;;;;5059493;28;20420;-67
2023/03/19 06:05:57;;;;;;;10.65;8.13;;;9.40;99.90;;;;;;5057679;28;20037;-67
2023/03/19 06:08:23;;;;;;;10.88;7.38;;;9.50;99.90;;;;;;5057301;28;20053;-66
2023/03/19 06:10:49;;;;;;;11.32;7.88;;;9.30;99.90;;;;;;5055498;28;20066;-67
2023/03/19 06:13:15;;;;;;;9.95;7.03;;;9.40;99.90;;;;;;5054895;28;20044;-66
2023/03/19 06:15:41;;;;;;;10.60;7.15;;;9.40;99.90;;;;;;5054035;28;20044;-67
2023/03/19 06:18:07;;;;;;;9.70;6.82;;;9.30;99.90;;;;;;5035447;28;20080;-67
2023/03/19 06:20:33;;;;;;;9.75;7.18;;;9.20;99.90;;;;;;5053136;28;20412;-67
2023/03/19 06:22:59;;;;;;;8.68;6.43;;;9.10;99.90;;;;;;5035802;28;20128;-67
2023/03/19 06:25:25;;;;;;;9.30;7.20;;;9.20;99.90;;;;;;5052957;28;20396;-67
2023/03/19 06:27:50;;;;;;;9.52;7.18;;;9.20;99.90;;;;;;5053024;28;20095;-68
2023/03/19 06:30:16;;;;;;;9.07;6.40;;;9.20;99.90;;;;;;5019025;28;20081;-67
2023/03/19 06:32:42;;;;;;;8.80;6.57;;;9.20;99.90;;;;;;5053277;28;20045;-67
2023/03/19 06:35:08;;;;;;;7.75;6.07;;;9.20;99.90;;;;;;5053096;28;20488;-67
2023/03/19 06:37:34;;;;;;;8.95;5.82;;;9.20;99.90;;;;;;5036582;28;20044;-67
2023/03/19 06:39:59;;;;;;;7.68;5.60;;;9.20;99.90;;;;;;5053009;28;20515;-67
2023/03/19 06:42:25;;;;;;;7.78;5.68;;;9.20;99.90;;;;;;5022324;28;20048;-68
2023/03/19 06:44:51;;;;;;;6.88;5.15;;;9.10;99.90;;;;;;5040234;28;20060;-67
2023/03/19 06:47:18;;;;;;;8.68;5.25;;;9.10;99.90;;;;;;5057411;28;20426;-67
2023/03/19 06:49:44;;;;;;;6.15;4.85;;;9.30;99.90;;;;;;5056838;28;20053;-67
2023/03/19 06:52:10;;;;;;;6.10;5.35;;;9.10;99.90;;;;;;5057267;28;20053;-67
2023/03/19 06:54:35;;;;;;;7.82;5.35;;;9.10;99.90;;;;;;5057299;28;20102;-67
2023/03/19 06:57:01;;;;;;;5.25;4.25;;;9.30;99.90;;;;;;5039095;28;20041;-67
2023/03/19 06:59:27;;;;;;;7.45;4.85;;;9.40;99.90;;;;;;5034960;28;20056;-68
2023/03/19 07:01:53;;;;;;;5.88;4.45;;;9.30;99.90;;;;;;5036386;28;20057;-67
2023/03/19 07:04:19;;;;;;;7.03;5.15;;;9.10;99.90;;;;;;5035130;28;20076;-67
2023/03/19 07:06:45;;;;;;;6.55;5.20;;;9.20;99.90;;;;;;5036709;28;20516;-67
2023/03/19 07:09:10;;;;;;;6.07;4.43;;;9.10;99.90;;;;;;5035216;28;20488;-67
2023/03/19 07:11:36;;;;;;;7.43;5.15;;;9.20;99.90;;;;;;5036956;28;20053;-67
2023/03/19 07:14:03;;;;;;;5.55;4.38;;;9.20;99.90;;;;;;5036117;28;20056;-67
2023/03/19 07:16:29;;;;;;;7.10;5.10;;;9.20;99.90;;;;;;5036116;28;20063;-67
2023/03/19 07:18:55;;;;;;;6.70;5.80;;;9.40;99.90;;;;;;5034765;28;20049;-67
2023/03/19 07:21:21;;;;;;;6.32;4.90;;;9.40;99.90;;;;;;5035960;28;20041;-67
2023/03/19 07:23:49;;;;;;;7.07;4.97;;;9.50;99.90;;;;;;5035053;28;20049;-67
2023/03/19 07:26:15;;;;;;;7.22;5.22;;;9.40;99.90;;;;;;5035861;28;20046;-67
2023/03/19 07:28:41;;;;;;;7.50;5.53;;;9.60;99.90;;;;;;5035197;28;20052;-67
2023/03/19 07:31:07;;;;;;;7.07;5.32;;;9.50;99.90;;;;;;5035228;28;20393;-67
2023/03/19 07:33:33;;;;;;;7.55;5.45;;;9.50;99.90;;;;;;5034835;28;20497;-67
2023/03/19 07:35:59;;;;;;;6.78;5.65;;;9.60;99.90;;;;;;5035805;28;20064;-67
2023/03/19 07:38:25;;;;;;;7.63;5.15;;;9.60;99.90;;;;;;5035782;28;20104;-68
2023/03/19 07:40:51;;;;;;;7.55;5.97;;;9.60;99.90;;;;;;5035683;28;20053;-68
2023/03/19 07:43:16;;;;;;;9.05;6.00;;;9.60;99.90;;;;;;5036494;28;20045;-68
2023/03/19 07:45:42;;;;;;;7.57;6.07;;;9.60;99.90;;;;;;5035503;28;20057;-67
2023/03/19 07:48:08;;;;;;;7.70;6.22;;;9.60;99.90;;;;;;5034367;28;20060;-68
2023/03/19 07:50:34;;;;;;;8.82;6.65;;;9.70;99.90;;;;;;5035704;28;20090;-67
2023/03/19 07:52:59;;;;;;;8.38;6.38;;;9.80;99.90;;;;;;5035387;28;20077;-67
2023/03/19 07:55:25;;;;;;;7.70;6.70;;;9.90;99.90;;;;;;5035178;28;20085;-67
2023/03/19 07:57:51;;;;;;;10.30;7.18;;;9.80;99.90;;;;;;5036006;28;20382;-67
2023/03/19 08:00:17;;;;;;;9.52;7.03;;;9.90;99.90;;;;;;5033975;28;20053;-66
2023/03/19 08:02:43;;;;;;;9.40;7.47;;;10.00;99.90;;;;;;5035856;28;20140;-66
2023/03/19 08:05:10;;;;;;;11.32;7.60;;;9.90;99.90;;;;;;5034985;28;20183;-69
2023/03/19 08:07:36;;;;;;;10.18;7.03;;;10.00;99.90;;;;;;5035051;28;20096;-69
2023/03/19 08:10:04;;;;;;;10.95;7.57;;;10.20;99.90;;;;;;5035126;28;20092;-67
2023/03/19 08:12:30;;;;;;;11.77;8.20;;;10.20;99.90;;;;;;5035526;28;20056;-67
2023/03/19 08:14:56;;;;;;;11.52;7.50;;;10.20;99.90;;;;;;5034795;28;20092;-67
2023/03/19 08:17:22;;;;;;;10.57;7.35;;;10.10;99.90;;;;;;5035895;28;20084;-67
2023/03/19 08:19:47;;;;;;;11.95;7.38;;;10.10;99.90;;;;;;5033894;28;20049;-67
2023/03/19 08:22:13;;;;;;;11.68;7.35;;;10.20;99.90;;;;;;5018154;28;20063;-66
2023/03/19 08:24:39;;;;;;;10.18;6.88;;;10.20;99.90;;;;;;5035645;28;20386;-66
2023/03/19 08:27:06;;;;;;;11.65;6.47;;;10.20;99.90;;;;;;5034914;28;20069;-66
2023/03/19 08:29:32;;;;;;;11.00;6.30;;;10.20;99.90;;;;;;5034376;28;20628;-66
2023/03/19 08:31:59;;;;;;;11.65;7.25;;;10.30;99.90;;;;;;5033801;28;20120;-66
2023/03/19 08:34:25;;;;;;;9.73;6.82;;;10.30;99.90;;;;;;5034612;28;20053;-66
2023/03/19 08:36:51;;;;;;;11.25;7.70;;;10.40;99.90;;;;;;5034668;28;20049;-66
2023/03/19 08:39:17;;;;;;;10.48;6.55;;;10.50;99.90;;;;;;5035302;28;20049;-66
2023/03/19 08:41:43;;;;;;;11.50;6.70;;;10.60;99.90;;;;;;5034973;28;20486;-66
2023/03/19 08:44:09;;;;;;;11.15;6.78;;;10.60;99.90;;;;;;5033370;28;20045;-66
2023/03/19 08:46:35;;;;;;;11.65;7.13;;;10.60;99.90;;;;;;5033315;28;20042;-66
2023/03/19 08:49:01;;;;;;;10.60;6.82;;;10.80;99.90;;;;;;5035224;28;20136;-66
2023/03/19 08:51:29;;;;;;;10.25;6.50;;;10.90;99.90;;;;;;5033987;28;20541;-66
2023/03/19 08:53:55;;;;;;;10.20;7.32;;;10.90;99.90;;;;;;5033335;28;20067;-67
2023/03/19 08:56:21;;;;;;;11.65;7.72;;;11.10;99.90;;;;;;5016749;28;20053;-67
2023/03/19 08:58:47;;;;;;;9.35;6.50;;;11.20;99.90;;;;;;5016561;28;20068;-67
2023/03/19 09:01:13;;;;;;;7.70;5.05;;;11.20;99.90;;;;;;5033146;28;20176;-68
2023/03/19 09:03:41;;;;;;;8.15;5.35;;;11.10;99.90;;;;;;5034240;28;20064;-67
2023/03/19 09:06:09;;;;;;;7.22;5.43;;;11.10;99.90;;;;;;5034183;28;20041;-68
2023/03/19 09:08:36;;;;;;;8.63;5.80;;;11.00;99.90;;;;;;5016670;28;20076;-68
2023/03/19 09:11:02;;;;;;;7.93;5.78;;;11.00;99.90;;;;;;5034101;28;20057;-68
2023/03/19 09:13:28;;;;;;;8.02;5.57;;;11.00;99.90;;;;;;5033091;28;20080;-68
2023/03/19 09:15:54;;;;;;;9.73;6.00;;;10.80;99.90;;;;;;5033269;28;20053;-67
2023/03/19 09:18:22;;;;;;;8.73;5.80;;;10.70;99.90;;;;;;5034512;28;20059;-67
2023/03/19 09:20:48;;;;;;;9.85;5.82;;;10.70;99.90;;;;;;5034071;28;20099;-67
2023/03/19 09:23:14;;;;;;;8.15;6.10;;;10.60;99.90;;;;;;5033699;28;20049;-67
2023/03/19 09:25:40;;;;;;;8.75;6.18;;;10.60;99.90;;;;;;5033169;28;20044;-67
2023/03/19 09:28:05;;;;;;;8.82;6.30;;;10.70;99.90;;;;;;5032911;28;20049;-68
2023/03/19 09:30:31;;;;;;;13.10;7.40;;;10.70;99.90;;;;;;5033189;28;20115;-68
2023/03/19 09:32:57;;;;;;;9.80;6.00;;;10.80;99.90;;;;;;5033563;28;20045;-68
2023/03/19 09:35:23;;;;;;;7.43;5.15;;;11.00;99.90;;;;;;5033805;28;20050;-68
2023/03/19 09:37:49;;;;;;;6.47;4.50;;;11.00;99.90;;;;;;5033811;28;20045;-69
2023/03/19 09:40:29;;;;;;;6.80;4.22;;;11.00;99.90;;;;;;5033856;28;20076;-69
2023/03/19 09:43:20;;;;;;;7.30;3.92;;;11.10;99.90;;;;;;5033370;28;20045;-68
2023/03/19 09:45:47;;;;;;;8.02;4.60;;;11.20;99.90;;;;;;5032340;28;20049;-68
2023/03/19 09:48:18;;;;;;;6.45;4.88;;;11.30;99.90;;;;;;5033755;28;20393;-69
2023/03/19 09:50:47;;;;;;;8.77;4.90;;;11.20;99.90;;;;;;5033458;28;20547;-68
2023/03/19 09:53:29;;;;;;;11.27;6.10;;;11.30;99.90;;;;;;5032675;28;20057;-68
2023/03/19 09:55:59;;;;;;;8.88;6.13;;;11.40;99.90;;;;;;5033977;28;20048;-69
2023/03/19 09:58:32;;;;;;;8.57;4.97;;;11.30;99.90;;;;;;5035435;28;20041;-68
2023/03/19 10:00:59;;;;;;;6.35;4.30;;;11.40;99.90;;;;;;5036178;28;20049;-68
2023/03/19 10:03:37;;;;;;;8.50;5.60;;;11.40;99.90;;;;;;5019363;28;20378;-68
2023/03/19 10:06:06;;;;;;;7.80;5.18;;;11.30;99.90;;;;;;5054137;28;20389;-68
2023/03/19 10:08:46;;;;;;;7.22;5.30;;;11.30;99.90;;;;;;5053738;28;20396;-68
2023/03/19 10:11:51;;;;;;;6.63;4.95;;;11.40;99.90;;;;;;5054240;28;20136;-68
2023/03/19 10:14:20;;;;;;;5.68;4.38;;;11.50;99.90;;;;;;4975531;28;20058;-68
2023/03/19 10:16:50;;;;;;;5.78;4.40;;;11.30;99.90;;;;;;5045745;28;20056;-68
2023/03/19 10:19:21;;;;;;;4.10;3.60;;;11.40;99.90;;;;;;5057316;28;20084;-68
2023/03/19 10:21:59;;;;;;;6.88;4.40;;;11.50;99.90;;;;;;5040538;28;20131;-68
2023/03/19 10:24:33;;;;;;;8.00;5.45;;;11.50;99.90;;;;;;5039877;28;20040;-68
2023/03/19 10:27:13;;;;;;;6.47;4.35;;;11.60;99.90;;;;;;5057099;28;20049;-68
2023/03/19 10:29:40;;;;;;;6.97;5.03;;;11.60;99.90;;;;;;5057321;28;20093;-68
2023/03/19 10:32:27;;;;;;;7.88;5.32;;;11.60;99.90;;;;;;5057522;28;20044;-68
2023/03/19 10:34:53;;;;;;;7.47;5.15;;;11.60;99.90;;;;;;5057661;28;20053;-68
2023/03/19 10:37:28;;;;;;;6.50;4.72;;;11.70;99.90;;;;;;5039704;28;20393;-69
2023/03/19 10:39:57;;;;;;;6.45;4.55;;;11.70;99.90;;;;;;5056951;28;20045;-68
2023/03/19 10:43:02;;;;;;;11.57;6.93;;;11.80;99.90;;;;;;5040153;28;20132;-68
2023/03/19 10:45:35;;;;;;;6.97;4.47;;;12.00;99.90;;;;;;5046649;28;20052;-69
2023/03/19 10:48:03;;;;;;;7.05;4.63;;;11.90;99.90;;;;;;5038892;28;20044;-68
2023/03/19 10:50:46;;;;;;;6.45;4.55;;;11.90;99.90;;;;;;5056735;28;20056;-68
2023/03/19 10:53:12;;;;;;;7.40;4.93;;;12.00;99.90;;;;;;5056823;28;20045;-68
2023/03/19 10:55:43;;;;;;;10.52;6.72;;;11.90;99.90;;;;;;5056331;28;20485;-68
2023/03/19 10:58:18;;;;;;;11.80;8.18;;;12.00;99.90;;;;;;5056467;28;20179;-73
2023/03/19 11:00:48;;;;;;;11.55;7.63;;;12.10;99.90;;;;;;5022804;28;20420;-68
2023/03/19 11:03:47;;;;;;;5.30;4.00;;;12.00;99.90;;;;;;5056540;28;20106;-68
2023/03/19 11:06:24;;;;;;;5.70;4.75;;;12.00;99.90;;;;;;5056799;28;20052;-68
2023/03/19 11:09:12;;;;;;;5.57;3.80;;;12.20;99.90;;;;;;5056964;28;20436;-69
2023/03/19 11:11:50;;;;;;;37.58;21.75;;;12.10;99.90;;;;;;5056397;28;20041;-69
2023/03/19 11:14:23;;;;;;;31.75;18.17;;;12.10;99.90;;;;;;5056609;28;20141;-68
2023/03/19 11:17:06;;;;;;;10.45;6.80;;;12.10;99.90;;;;;;5056672;28;20119;-68
2023/03/19 11:19:38;;;;;;;8.23;6.10;;;12.20;99.90;;;;;;5056284;28;20048;-69
2023/03/19 11:22:08;;;;;;;11.85;7.45;;;12.20;99.90;;;;;;5056999;28;20045;-69
2023/03/19 11:24:39;;;;;;;5.78;3.67;;;12.30;99.90;;;;;;5057794;28;20056;-69
2023/03/19 11:27:07;;;;;;;6.78;4.35;;;12.30;99.90;;;;;;5055801;28;20362;-68
2023/03/19 11:29:39;;;;;;;10.05;5.57;;;12.20;99.90;;;;;;5055720;28;20053;-69
2023/03/19 11:32:14;;;;;;;5.93;4.38;;;12.30;99.90;;;;;;5056392;28;20053;-69
2023/03/19 11:35:06;;;;;;;5.47;4.13;;;12.20;99.90;;;;;;5056407;28;20102;-69
2023/03/19 11:37:56;;;;;;;6.55;4.70;;;12.20;99.90;;;;;;5056037;28;20053;-68
2023/03/19 11:40:40;;;;;;;6.13;4.65;;;12.30;99.90;;;;;;5055863;28;20080;-68
2023/03/19 11:43:24;;;;;;;6.88;4.25;;;12.30;99.90;;;;;;5055862;28;20045;-69
2023/03/19 11:46:01;;;;;;;5.60;4.40;;;12.40;99.90;;;;;;5055692;28;20049;-68
2023/03/19 11:48:45;;;;;;;5.28;4.07;;;12.50;99.90;;;;;;5056286;28;20429;-68
2023/03/19 11:51:26;;;;;;;6.22;4.53;;;12.50;99.90;;;;;;5055623;28;20041;-69
2023/03/19 11:54:04;;;;;;;5.03;4.28;;;12.60;99.90;;;;;;5056137;28;20056;-68
2023/03/19 11:56:49;;;;;;;5.90;4.50;;;12.50;99.90;;;;;;5055589;28;20048;-68
2023/03/19 11:59:33;;;;;;;6.00;4.35;;;12.80;99.90;;;;;;5055927;28;20186;-68
2023/03/19 12:02:13;;;;;;;4.05;3.47;;;12.60;99.90;;;;;;5056857;28;20085;-68
2023/03/19 12:04:46;;;;;;;6.20;4.28;;;12.90;99.90;;;;;;5056233;28;20075;-68
2023/03/19 12:07:35;;;;;;;6.32;4.18;;;12.70;99.90;;;;;;5055622;28;20049;-68
2023/03/19 12:10:04;;;;;;;4.53;4.00;;;12.70;99.90;;;;;;5041421;28;20419;-69
2023/03/19 12:13:07;;;;;;;6.20;4.25;;;12.70;99.90;;;;;;5044561;28;20041;-68
2023/03/19 12:16:07;;;;;;;6.78;4.40;;;12.70;99.90;;;;;;5059654;28;20140;-69
2023/03/19 12:18:51;;;;;;;5.32;4.10;;;12.60;99.90;;;;;;5037051;28;20057;-69
2023/03/19 12:21:36;;;;;;;6.75;5.03;;;12.70;99.90;;;;;;5037762;28;20157;-68
2023/03/19 12:24:02;;;;;;;6.65;5.05;;;12.60;99.90;;;;;;5038315;28;20092;-68
2023/03/19 12:26:39;;;;;;;6.45;5.38;;;12.60;99.90;;;;;;5054850;28;20130;-69
2023/03/19 12:29:23;;;;;;;6.85;5.25;;;12.70;99.90;;;;;;5054910;28;20049;-69
2023/03/19 12:31:59;;;;;;;7.30;5.05;;;12.70;99.90;;;;;;5055610;28;20494;-68
2023/03/19 12:34:34;;;;;;;8.65;5.38;;;12.60;99.90;;;;;;5054511;28;20486;-68
2023/03/19 12:37:21;;;;;;;7.47;5.53;;;12.70;99.90;;;;;;5037120;28;20083;-68
2023/03/19 12:40:22;;;;;;;7.40;4.75;;;12.70;99.90;;;;;;5055183;28;20100;-68
2023/03/19 12:42:48;;;;;;;6.47;4.97;;;12.80;99.90;;;;;;5037320;28;20057;-68
2023/03/19 12:45:27;;;;;;;6.30;4.32;;;12.80;99.90;;;;;;5055218;28;20358;-70
2023/03/19 12:48:20;;;;;;;5.68;4.40;;;12.80;99.90;;;;;;5036912;28;20053;-69
2023/03/19 12:50:51;;;;;;;5.28;4.45;;;12.90;99.90;;;;;;5037656;28;20092;-69
2023/03/19 12:53:55;;;;;;;7.40;5.43;;;13.00;99.90;;;;;;5054779;28;20055;-68
2023/03/19 12:56:52;;;;;;;7.05;5.28;;;12.90;99.90;;;;;;5054892;28;20354;-68